Time;durP1;ratioP1;P1;durP2;ratioP2;P2;SDS_P1;SDS_P2;PMS_P1;PMS_P2;Temp;Humidity;BMP_temperature;BMP_pressure;BME280_temperature;BME280_humidity;BME280_pressure;Samples;Min_cycle;Max_cycle;Signal;HPM_P1;HPM_P2
2023/12/17 00:01:18;;;;;;;25.03;8.47;;;0.40;99.90;;;;;;4952147;28;21028;-58
2023/12/17 00:03:44;;;;;;;166.73;13.30;;;0.40;99.90;;;;;;4943197;28;20272;-58
2023/12/17 00:06:10;;;;;;;205.63;12.87;;;0.40;99.90;;;;;;4950740;28;20187;-56
2023/12/17 00:08:36;;;;;;;42.27;9.10;;;0.30;99.90;;;;;;4945452;28;20262;-58
2023/12/17 00:11:02;;;;;;;214.87;15.50;;;0.30;99.90;;;;;;4936567;28;20513;-56
2023/12/17 00:13:27;;;;;;;248.20;16.53;;;0.20;99.90;;;;;;4939106;28;20237;-57
2023/12/17 00:15:53;;;;;;;163.43;12.07;;;0.10;99.90;;;;;;4955354;28;20412;-57
2023/12/17 00:18:19;;;;;;;228.60;16.17;;;0.10;99.90;;;;;;4952597;28;20181;-57
2023/12/17 00:20:44;;;;;;;63.80;9.70;;;0.00;99.90;;;;;;4956770;28;20180;-57
2023/12/17 00:23:10;;;;;;;26.73;9.27;;;0.00;99.90;;;;;;4948112;28;20655;-57
2023/12/17 00:25:35;;;;;;;240.07;17.70;;;0.00;99.90;;;;;;4953696;28;20206;-55
2023/12/17 00:28:01;;;;;;;89.30;11.20;;;0.00;99.90;;;;;;4948376;28;20180;-57
2023/12/17 00:30:26;;;;;;;107.23;11.33;;;0.00;99.90;;;;;;4944802;28;20189;-57
2023/12/17 00:32:52;;;;;;;153.53;11.73;;;0.00;99.90;;;;;;4957071;28;20193;-57
2023/12/17 00:35:18;;;;;;;16.23;8.17;;;0.00;99.90;;;;;;4952705;28;20212;-56
2023/12/17 00:37:44;;;;;;;33.60;7.60;;;-0.10;99.90;;;;;;4943854;28;20197;-58
2023/12/17 00:40:09;;;;;;;31.40;9.00;;;-0.10;99.90;;;;;;4943579;28;20444;-57
2023/12/17 00:42:35;;;;;;;66.30;9.70;;;0.00;99.90;;;;;;4948349;28;20295;-57
2023/12/17 00:45:01;;;;;;;53.03;8.40;;;0.00;99.90;;;;;;4952603;28;20852;-56
2023/12/17 00:47:27;;;;;;;13.03;7.03;;;0.00;99.90;;;;;;4952460;28;20431;-57
2023/12/17 00:49:52;;;;;;;48.83;9.00;;;-0.10;99.90;;;;;;4952011;28;20205;-56
2023/12/17 00:52:20;;;;;;;22.93;8.30;;;-0.10;99.90;;;;;;4948904;28;20185;-58
2023/12/17 00:54:46;;;;;;;55.73;9.33;;;0.00;99.90;;;;;;4951088;28;20199;-56
2023/12/17 00:57:11;;;;;;;30.47;8.37;;;0.00;99.90;;;;;;4947182;28;20438;-58
2023/12/17 00:59:37;;;;;;;59.97;8.80;;;0.00;99.90;;;;;;4939963;28;20562;-58
2023/12/17 01:02:03;;;;;;;35.60;8.73;;;0.00;99.90;;;;;;4946434;28;20319;-56
2023/12/17 01:04:28;;;;;;;48.13;9.73;;;0.00;99.90;;;;;;4932839;28;20252;-58
2023/12/17 01:06:54;;;;;;;74.53;10.33;;;0.00;99.90;;;;;;4950331;28;20257;-57
2023/12/17 01:09:20;;;;;;;47.13;9.17;;;0.00;99.90;;;;;;4950118;28;20232;-57
2023/12/17 01:11:45;;;;;;;27.43;8.50;;;0.00;99.90;;;;;;4951255;28;20663;-57
2023/12/17 01:14:11;;;;;;;34.70;9.40;;;0.00;99.90;;;;;;4949916;28;20205;-57
2023/12/17 01:16:36;;;;;;;114.50;10.63;;;-0.10;99.90;;;;;;4949522;28;20185;-56
2023/12/17 01:19:02;;;;;;;110.73;10.60;;;-0.10;99.90;;;;;;4945023;28;20547;-57
2023/12/17 01:21:27;;;;;;;93.43;10.47;;;-0.10;99.90;;;;;;4944263;28;20208;-57
2023/12/17 01:23:53;;;;;;;21.90;8.00;;;-0.10;99.90;;;;;;4948566;28;20200;-57
2023/12/17 01:26:22;;;;;;;69.37;8.47;;;-0.10;99.90;;;;;;4949917;28;20272;-59
2023/12/17 01:28:49;;;;;;;62.67;8.53;;;-0.20;99.90;;;;;;4943878;28;20694;-58
2023/12/17 01:31:14;;;;;;;87.40;9.60;;;-0.20;99.90;;;;;;4941188;28;20451;-57
2023/12/17 01:33:40;;;;;;;99.13;8.80;;;-0.20;99.90;;;;;;4948475;28;20524;-57
2023/12/17 01:36:06;;;;;;;35.77;7.90;;;-0.20;99.90;;;;;;4940375;28;20178;-57
2023/12/17 01:38:32;;;;;;;53.30;8.10;;;-0.20;99.90;;;;;;4947408;28;20246;-56
2023/12/17 01:40:57;;;;;;;131.97;10.00;;;-0.20;99.90;;;;;;4938815;28;20450;-57
2023/12/17 01:43:23;;;;;;;39.43;8.27;;;-0.30;99.90;;;;;;4949942;28;20228;-57
2023/12/17 01:45:50;;;;;;;58.27;9.07;;;-0.30;99.90;;;;;;4953254;28;20231;-57
2023/12/17 01:48:15;;;;;;;27.93;6.73;;;-0.30;99.90;;;;;;4943939;28;20177;-56
2023/12/17 01:50:42;;;;;;;235.13;15.70;;;-0.40;99.90;;;;;;4957481;28;20455;-57
2023/12/17 01:53:08;;;;;;;27.00;7.70;;;-0.40;99.90;;;;;;4952013;28;20181;-58
2023/12/17 01:55:34;;;;;;;71.77;9.40;;;-0.40;99.90;;;;;;4947915;28;20531;-57
2023/12/17 01:58:00;;;;;;;63.37;11.13;;;-0.50;99.90;;;;;;4952115;28;20420;-57
2023/12/17 02:00:25;;;;;;;30.60;8.40;;;-0.40;99.90;;;;;;4949371;28;20196;-56
2023/12/17 02:02:51;;;;;;;107.77;11.00;;;-0.50;99.90;;;;;;4946460;28;20477;-57
2023/12/17 02:05:17;;;;;;;40.53;8.43;;;-0.50;99.90;;;;;;4951196;28;20707;-57
2023/12/17 02:07:43;;;;;;;34.43;8.10;;;-0.50;99.90;;;;;;4943114;28;20423;-56
2023/12/17 02:10:09;;;;;;;22.03;8.43;;;-0.50;99.90;;;;;;4941128;28;20184;-58
2023/12/17 02:12:34;;;;;;;77.17;9.10;;;-0.50;99.90;;;;;;4936794;28;20192;-57
2023/12/17 02:15:00;;;;;;;95.17;11.47;;;-0.50;99.90;;;;;;4935009;28;20481;-56
2023/12/17 02:17:31;;;;;;;26.73;8.07;;;-0.50;99.90;;;;;;4935123;28;20223;-57
2023/12/17 02:19:57;;;;;;;19.90;7.73;;;-0.60;99.90;;;;;;4952180;28;20279;-57
2023/12/17 02:22:23;;;;;;;33.17;9.60;;;-0.60;99.90;;;;;;4949853;28;20562;-57
2023/12/17 02:24:51;;;;;;;34.33;8.33;;;-0.60;99.90;;;;;;4949451;28;20548;-58
2023/12/17 02:27:24;;;;;;;64.10;9.13;;;-0.60;99.90;;;;;;4944191;28;20956;-56
2023/12/17 02:29:51;;;;;;;17.00;8.33;;;-0.60;99.90;;;;;;4949599;28;20994;-58
2023/12/17 02:32:17;;;;;;;25.70;10.07;;;-0.60;99.90;;;;;;4944236;28;21193;-57
2023/12/17 02:34:44;;;;;;;28.47;8.80;;;-0.50;99.90;;;;;;4951406;28;20460;-58
2023/12/17 02:37:10;;;;;;;156.87;15.13;;;-0.50;99.90;;;;;;4943958;28;21070;-57
2023/12/17 02:39:35;;;;;;;36.63;9.40;;;-0.50;99.90;;;;;;4953564;28;20525;-55
2023/12/17 02:42:01;;;;;;;160.50;12.90;;;-0.50;99.90;;;;;;4947936;28;20255;-58
2023/12/17 02:44:27;;;;;;;46.77;10.40;;;-0.50;99.90;;;;;;4937676;28;20208;-58
2023/12/17 02:46:53;;;;;;;50.07;9.27;;;-0.50;99.90;;;;;;4949410;28;20192;-57
2023/12/17 02:49:19;;;;;;;107.93;10.40;;;-0.60;99.90;;;;;;4946676;28;20180;-58
2023/12/17 02:51:44;;;;;;;64.50;9.20;;;-0.60;99.90;;;;;;4947800;28;20816;-58
2023/12/17 02:54:10;;;;;;;221.37;14.83;;;-0.60;99.90;;;;;;4948236;28;20208;-58
2023/12/17 02:56:40;;;;;;;65.17;8.53;;;-0.70;99.90;;;;;;4947122;28;20200;-57
2023/12/17 02:59:09;;;;;;;82.67;9.87;;;-0.70;99.90;;;;;;4942888;28;20511;-57
2023/12/17 03:01:35;;;;;;;130.10;11.80;;;-0.70;99.90;;;;;;4949260;28;20697;-57
2023/12/17 03:04:03;;;;;;;53.30;8.37;;;-0.80;99.90;;;;;;4946107;28;20499;-56
2023/12/17 03:06:28;;;;;;;77.60;9.77;;;-0.80;99.90;;;;;;4937819;28;20216;-56
2023/12/17 03:08:54;;;;;;;69.97;10.77;;;-0.80;99.90;;;;;;4941729;28;20459;-58
2023/12/17 03:11:19;;;;;;;35.03;7.90;;;-0.80;99.90;;;;;;4951233;28;20558;-57
2023/12/17 03:13:45;;;;;;;144.43;11.70;;;-0.80;99.90;;;;;;4945497;28;20208;-58
2023/12/17 03:16:11;;;;;;;68.43;9.77;;;-0.80;99.90;;;;;;4943337;28;20718;-57
2023/12/17 03:18:36;;;;;;;77.73;10.83;;;-0.80;99.90;;;;;;4942709;28;20196;-57
2023/12/17 03:21:07;;;;;;;51.10;8.80;;;-0.80;99.90;;;;;;4945191;28;20196;-57
2023/12/17 03:23:33;;;;;;;54.97;9.83;;;-0.80;99.90;;;;;;4939544;28;20188;-57
2023/12/17 03:25:58;;;;;;;31.30;8.30;;;-0.80;99.90;;;;;;4952469;28;20804;-57
2023/12/17 03:28:24;;;;;;;26.73;8.10;;;-0.80;99.90;;;;;;4940969;28;20847;-58
2023/12/17 03:30:49;;;;;;;69.17;8.33;;;-0.80;99.90;;;;;;4940499;28;20197;-58
2023/12/17 03:33:15;;;;;;;32.37;7.97;;;-0.80;99.90;;;;;;4945869;28;20834;-57
2023/12/17 03:35:41;;;;;;;30.53;7.70;;;-0.80;99.90;;;;;;4950380;28;20208;-56
2023/12/17 03:38:06;;;;;;;41.90;8.43;;;-0.80;99.90;;;;;;4948430;28;20212;-57
2023/12/17 03:40:33;;;;;;;15.53;7.10;;;-0.80;99.90;;;;;;4939992;28;20217;-57
2023/12/17 03:42:58;;;;;;;70.97;11.30;;;-0.80;99.90;;;;;;4949980;28;20701;-56
2023/12/17 03:45:24;;;;;;;22.73;9.10;;;-0.90;99.90;;;;;;4939660;28;20435;-57
2023/12/17 03:47:49;;;;;;;56.90;9.10;;;-0.90;99.90;;;;;;4950885;28;20185;-57
2023/12/17 03:50:16;;;;;;;103.27;11.23;;;-0.90;99.90;;;;;;4933518;28;20185;-57
2023/12/17 03:52:44;;;;;;;26.87;8.50;;;-0.90;99.90;;;;;;4942733;28;20663;-56
2023/12/17 03:55:11;;;;;;;157.63;12.93;;;-0.90;99.90;;;;;;4955582;28;20495;-58
2023/12/17 03:57:36;;;;;;;79.17;9.30;;;-0.90;99.90;;;;;;4946313;28;20437;-58
2023/12/17 04:00:03;;;;;;;44.30;8.70;;;-0.90;99.90;;;;;;4952953;28;20422;-58
2023/12/17 04:02:29;;;;;;;38.23;8.30;;;-0.90;99.90;;;;;;4939439;28;20833;-57
2023/12/17 04:04:55;;;;;;;67.93;8.47;;;-1.00;99.90;;;;;;4951260;28;20512;-57
2023/12/17 04:07:20;;;;;;;67.03;9.43;;;-1.00;99.90;;;;;;4951777;28;20519;-58
2023/12/17 04:09:47;;;;;;;103.73;8.80;;;-1.00;99.90;;;;;;4952326;28;20555;-57
2023/12/17 04:12:13;;;;;;;115.80;10.60;;;-1.00;99.90;;;;;;4942241;28;20225;-55
2023/12/17 04:14:39;;;;;;;54.07;8.73;;;-1.10;99.90;;;;;;4953761;28;20472;-57
2023/12/17 04:17:05;;;;;;;220.97;14.60;;;-1.10;99.90;;;;;;4947736;28;20444;-57
2023/12/17 04:19:31;;;;;;;58.67;8.23;;;-1.10;99.90;;;;;;4949279;28;20424;-56
2023/12/17 04:21:56;;;;;;;133.10;11.00;;;-1.20;99.90;;;;;;4950705;28;20204;-57
2023/12/17 04:24:22;;;;;;;143.23;12.50;;;-1.20;99.90;;;;;;4939732;28;20958;-57
2023/12/17 04:26:48;;;;;;;219.53;12.20;;;-1.30;99.90;;;;;;4939554;28;20176;-56
2023/12/17 04:29:13;;;;;;;95.30;8.33;;;-1.30;99.90;;;;;;4949966;28;20186;-58
2023/12/17 04:31:39;;;;;;;50.40;7.83;;;-1.40;99.90;;;;;;4945678;28;20181;-57
2023/12/17 04:34:05;;;;;;;110.43;9.87;;;-1.40;99.90;;;;;;4947878;28;20216;-58
2023/12/17 04:36:30;;;;;;;189.40;11.53;;;-1.40;99.90;;;;;;4953411;28;20840;-58
2023/12/17 04:38:56;;;;;;;131.97;11.77;;;-1.40;99.90;;;;;;4952223;28;20263;-58
2023/12/17 04:41:21;;;;;;;96.10;10.00;;;-1.40;99.90;;;;;;4950625;28;20284;-57
2023/12/17 04:43:47;;;;;;;45.80;7.30;;;-1.40;99.90;;;;;;4951213;28;20733;-56
2023/12/17 04:46:13;;;;;;;95.53;10.40;;;-1.50;99.90;;;;;;4953624;28;20179;-57
2023/12/17 04:48:38;;;;;;;204.97;13.60;;;-1.50;99.90;;;;;;4957490;28;20180;-57
2023/12/17 04:51:05;;;;;;;143.67;12.00;;;-1.50;99.90;;;;;;4948748;28;20179;-57
2023/12/17 04:53:31;;;;;;;41.13;7.17;;;-1.50;99.90;;;;;;4952824;28;20177;-56
2023/12/17 04:55:56;;;;;;;55.17;7.57;;;-1.50;99.90;;;;;;4952977;28;20784;-57
2023/12/17 04:58:23;;;;;;;139.70;11.63;;;-1.50;99.90;;;;;;4944924;28;20414;-58
2023/12/17 05:00:49;;;;;;;13.83;7.07;;;-1.50;99.90;;;;;;4949420;28;20548;-57
2023/12/17 05:03:14;;;;;;;68.67;8.10;;;-1.50;99.90;;;;;;4953068;28;20420;-58
2023/12/17 05:05:40;;;;;;;115.90;10.70;;;-1.40;99.90;;;;;;4943475;28;20848;-58
2023/12/17 05:08:06;;;;;;;21.67;7.40;;;-1.40;99.90;;;;;;4948894;28;20247;-58
2023/12/17 05:10:31;;;;;;;50.80;7.53;;;-1.40;99.90;;;;;;4952179;28;20191;-57
2023/12/17 05:12:57;;;;;;;11.90;6.50;;;-1.50;99.90;;;;;;4944299;28;20227;-57
2023/12/17 05:15:22;;;;;;;23.03;6.80;;;-1.40;99.90;;;;;;4945515;28;20197;-57
2023/12/17 05:17:48;;;;;;;96.47;8.83;;;-1.40;99.90;;;;;;4942310;28;20218;-58
2023/12/17 05:20:13;;;;;;;35.83;7.60;;;-1.40;99.90;;;;;;4946461;28;20173;-57
2023/12/17 05:22:39;;;;;;;18.93;7.13;;;-1.40;99.90;;;;;;4949264;28;20212;-58
2023/12/17 05:25:06;;;;;;;38.97;8.37;;;-1.40;99.90;;;;;;4951279;28;20200;-58
2023/12/17 05:27:31;;;;;;;129.87;11.83;;;-1.40;99.90;;;;;;4952128;28;20173;-57
2023/12/17 05:29:57;;;;;;;28.23;7.83;;;-1.40;99.90;;;;;;4951304;28;20530;-58
2023/12/17 05:32:23;;;;;;;151.07;11.93;;;-1.40;99.90;;;;;;4944757;28;20189;-56
2023/12/17 05:34:49;;;;;;;49.57;8.17;;;-1.50;99.90;;;;;;4950318;28;20216;-57
2023/12/17 05:37:14;;;;;;;63.87;8.60;;;-1.50;99.90;;;;;;4945906;28;20259;-57
2023/12/17 05:39:40;;;;;;;39.20;8.00;;;-1.50;99.90;;;;;;4950323;28;20966;-57
2023/12/17 05:42:06;;;;;;;60.20;8.27;;;-1.50;99.90;;;;;;4944632;28;20200;-56
2023/12/17 05:44:31;;;;;;;66.30;8.80;;;-1.50;99.90;;;;;;4944810;28;20570;-57
2023/12/17 05:46:57;;;;;;;35.53;8.00;;;-1.50;99.90;;;;;;4944365;28;20180;-58
2023/12/17 05:49:23;;;;;;;65.93;10.07;;;-1.60;99.90;;;;;;4948887;28;20561;-57
2023/12/17 05:51:49;;;;;;;29.67;6.70;;;-1.50;99.90;;;;;;4954500;28;20427;-56
2023/12/17 05:54:14;;;;;;;23.77;6.83;;;-1.50;99.90;;;;;;4947963;28;20703;-57
2023/12/17 05:56:43;;;;;;;32.30;7.37;;;-1.60;99.90;;;;;;4949683;28;20212;-59
2023/12/17 05:59:09;;;;;;;15.00;7.43;;;-1.60;99.90;;;;;;4948767;28;20215;-58
2023/12/17 06:01:35;;;;;;;37.67;7.73;;;-1.60;99.90;;;;;;4947097;28;20470;-57
2023/12/17 06:04:01;;;;;;;31.23;8.40;;;-1.50;99.90;;;;;;4940079;28;20441;-57
2023/12/17 06:06:27;;;;;;;31.93;7.40;;;-1.50;99.90;;;;;;4947908;28;20663;-58
2023/12/17 06:08:53;;;;;;;174.07;11.63;;;-1.60;99.90;;;;;;4949574;28;20420;-58
2023/12/17 06:11:19;;;;;;;40.33;7.77;;;-1.50;99.90;;;;;;4952302;28;20195;-58
2023/12/17 06:13:45;;;;;;;34.20;8.17;;;-1.60;99.90;;;;;;4946076;28;20765;-58
2023/12/17 06:16:11;;;;;;;22.10;8.00;;;-1.60;99.90;;;;;;4943259;28;20188;-58
2023/12/17 06:18:38;;;;;;;40.60;7.80;;;-1.60;99.90;;;;;;4942544;28;20418;-59
2023/12/17 06:21:04;;;;;;;42.53;7.60;;;-1.60;99.90;;;;;;4950300;28;20428;-58
2023/12/17 06:23:31;;;;;;;20.10;7.00;;;-1.60;99.90;;;;;;4948703;28;20508;-59
2023/12/17 06:25:57;;;;;;;38.30;6.87;;;-1.60;99.90;;;;;;4950640;28;20427;-58
2023/12/17 06:28:26;;;;;;;28.97;6.70;;;-1.60;99.90;;;;;;4951010;28;20428;-59
2023/12/17 06:30:51;;;;;;;32.50;7.10;;;-1.60;99.90;;;;;;4944633;28;20423;-58
2023/12/17 06:33:17;;;;;;;29.23;7.53;;;-1.60;99.90;;;;;;4944072;28;20435;-58
2023/12/17 06:35:44;;;;;;;15.53;6.90;;;-1.60;99.90;;;;;;4949521;28;20754;-57
2023/12/17 06:38:10;;;;;;;17.83;7.37;;;-1.60;99.90;;;;;;4949954;28;20193;-58
2023/12/17 06:40:35;;;;;;;25.13;7.80;;;-1.50;99.90;;;;;;4944394;28;20836;-58
2023/12/17 06:43:01;;;;;;;71.83;9.30;;;-1.50;99.90;;;;;;4944221;28;20683;-58
2023/12/17 06:45:26;;;;;;;31.93;8.50;;;-1.50;99.90;;;;;;4950284;28;20694;-58
2023/12/17 06:47:52;;;;;;;22.70;7.80;;;-1.50;99.90;;;;;;4954018;28;20179;-58
2023/12/17 06:50:18;;;;;;;44.10;9.00;;;-1.50;99.90;;;;;;4949504;28;20192;-57
2023/12/17 06:52:43;;;;;;;26.60;8.30;;;-1.50;99.90;;;;;;4949155;28;20675;-58
2023/12/17 06:55:09;;;;;;;17.53;7.67;;;-1.50;99.90;;;;;;4945353;28;20682;-57
2023/12/17 06:57:35;;;;;;;16.57;8.03;;;-1.50;99.90;;;;;;4948800;28;20220;-57
2023/12/17 07:00:01;;;;;;;14.20;7.60;;;-1.50;99.90;;;;;;4948210;28;20243;-58
2023/12/17 07:02:26;;;;;;;40.23;8.53;;;-1.50;99.90;;;;;;4950913;28;20205;-58
2023/12/17 07:04:52;;;;;;;21.17;7.83;;;-1.50;99.90;;;;;;4948342;28;20527;-57
2023/12/17 07:07:17;;;;;;;68.63;10.47;;;-1.50;99.90;;;;;;4943796;28;20180;-58
2023/12/17 07:09:43;;;;;;;35.77;10.07;;;-1.50;99.90;;;;;;4941060;28;20174;-56
2023/12/17 07:12:09;;;;;;;15.50;8.77;;;-1.50;99.90;;;;;;4949805;28;20189;-57
2023/12/17 07:14:35;;;;;;;18.63;8.23;;;-1.50;99.90;;;;;;4945969;28;20200;-57
2023/12/17 07:17:00;;;;;;;82.37;10.10;;;-1.60;99.90;;;;;;4949562;28;20279;-57
2023/12/17 07:19:26;;;;;;;47.50;8.70;;;-1.60;99.90;;;;;;4945799;28;20538;-58
2023/12/17 07:21:51;;;;;;;15.27;7.23;;;-1.50;99.90;;;;;;4948071;28;20619;-57
2023/12/17 07:24:17;;;;;;;30.17;8.93;;;-1.60;99.90;;;;;;4949767;28;20212;-57
2023/12/17 07:26:43;;;;;;;125.47;12.40;;;-1.50;99.90;;;;;;4950811;28;20290;-57
2023/12/17 07:29:08;;;;;;;72.33;10.50;;;-1.60;99.90;;;;;;4947977;28;20172;-57
2023/12/17 07:31:34;;;;;;;44.70;8.40;;;-1.60;99.90;;;;;;4953422;28;20184;-57
2023/12/17 07:33:59;;;;;;;113.00;11.40;;;-1.60;99.90;;;;;;4952007;28;20203;-58
2023/12/17 07:36:25;;;;;;;37.97;8.03;;;-1.60;99.90;;;;;;4953859;28;20199;-58
2023/12/17 07:38:51;;;;;;;77.10;9.63;;;-1.70;99.90;;;;;;4953021;28;20203;-58
2023/12/17 07:41:16;;;;;;;24.70;8.60;;;-1.70;99.90;;;;;;4951792;28;20218;-57
2023/12/17 07:43:43;;;;;;;41.07;9.07;;;-1.70;99.90;;;;;;4949948;28;20199;-57
2023/12/17 07:46:08;;;;;;;89.00;10.13;;;-1.70;99.90;;;;;;4945389;28;20185;-58
2023/12/17 07:48:34;;;;;;;74.93;9.17;;;-1.70;99.90;;;;;;4948862;28;20468;-57
2023/12/17 07:51:01;;;;;;;33.70;9.00;;;-1.70;99.90;;;;;;4941864;28;20689;-58
2023/12/17 07:53:27;;;;;;;102.33;10.67;;;-1.70;99.90;;;;;;4953123;28;20236;-58
2023/12/17 07:55:57;;;;;;;17.00;7.10;;;-1.70;99.90;;;;;;4953016;28;20419;-57
2023/12/17 07:58:24;;;;;;;11.30;6.67;;;-1.70;99.90;;;;;;4948779;28;20884;-58
2023/12/17 08:00:49;;;;;;;15.30;7.57;;;-1.70;99.90;;;;;;4948937;28;20440;-57
2023/12/17 08:03:15;;;;;;;12.40;7.23;;;-1.60;99.90;;;;;;4952972;28;20482;-58
2023/12/17 08:05:40;;;;;;;11.90;6.50;;;-1.60;99.90;;;;;;4945326;28;20205;-58
2023/12/17 08:08:06;;;;;;;11.17;7.20;;;-1.60;99.90;;;;;;4954431;28;20192;-58
2023/12/17 08:10:32;;;;;;;13.30;8.50;;;-1.60;99.90;;;;;;4953174;28;20184;-56
2023/12/17 08:12:57;;;;;;;13.10;8.07;;;-1.60;99.90;;;;;;4943714;28;20214;-57
2023/12/17 08:15:23;;;;;;;10.93;8.07;;;-1.50;99.90;;;;;;4948167;28;20203;-58
2023/12/17 08:17:48;;;;;;;17.80;9.80;;;-1.50;99.90;;;;;;4941916;28;20189;-59
2023/12/17 08:20:14;;;;;;;13.70;8.17;;;-1.40;99.90;;;;;;4946353;28;20193;-58
2023/12/17 08:22:39;;;;;;;21.60;9.20;;;-1.40;99.90;;;;;;4945588;28;20222;-57
2023/12/17 08:25:05;;;;;;;14.60;9.53;;;-1.30;99.90;;;;;;4949066;28;20204;-58
2023/12/17 08:27:31;;;;;;;16.13;9.53;;;-1.30;99.90;;;;;;4952256;28;20188;-58
2023/12/17 08:29:57;;;;;;;16.67;9.60;;;-1.30;99.90;;;;;;4952643;28;20188;-58
2023/12/17 08:32:23;;;;;;;13.37;9.30;;;-1.20;99.90;;;;;;4946728;28;20438;-57
2023/12/17 08:34:48;;;;;;;16.23;9.10;;;-1.20;99.90;;;;;;4942902;28;20721;-58
2023/12/17 08:37:14;;;;;;;13.73;8.20;;;-1.20;99.90;;;;;;4948078;28;20192;-58
2023/12/17 08:39:40;;;;;;;12.67;7.90;;;-1.10;99.90;;;;;;4940281;28;20652;-57
2023/12/17 08:42:06;;;;;;;16.67;9.23;;;-1.00;99.90;;;;;;4952085;28;20211;-58
2023/12/17 08:44:33;;;;;;;14.47;8.90;;;-1.00;99.90;;;;;;4953391;28;20200;-57
2023/12/17 08:46:59;;;;;;;13.60;8.53;;;-1.00;99.90;;;;;;4951844;28;20947;-58
2023/12/17 08:49:24;;;;;;;13.97;9.20;;;-0.90;99.90;;;;;;4942940;28;20420;-57
2023/12/17 08:51:50;;;;;;;13.43;9.07;;;-0.80;99.90;;;;;;4946233;28;20197;-58
2023/12/17 08:54:16;;;;;;;17.13;10.20;;;-0.80;99.90;;;;;;4945120;28;20196;-57
2023/12/17 08:56:41;;;;;;;17.50;10.50;;;-0.70;99.90;;;;;;4950847;28;20848;-56
2023/12/17 08:59:08;;;;;;;12.67;8.60;;;-0.60;99.90;;;;;;4948045;28;20219;-58
2023/12/17 09:01:34;;;;;;;13.50;9.07;;;-0.60;99.90;;;;;;4952792;28;20296;-57
2023/12/17 09:03:59;;;;;;;12.13;8.07;;;-0.50;99.90;;;;;;4947888;28;21169;-58
2023/12/17 09:06:25;;;;;;;13.43;9.80;;;-0.50;99.90;;;;;;4964404;28;20183;-58
2023/12/17 09:08:51;;;;;;;16.07;9.43;;;-0.40;99.90;;;;;;4942836;28;20236;-57
2023/12/17 09:11:17;;;;;;;17.27;10.20;;;-0.30;99.90;;;;;;4943453;28;21112;-58
2023/12/17 09:13:43;;;;;;;14.70;10.13;;;-0.30;99.90;;;;;;4950429;28;20197;-57
2023/12/17 09:16:08;;;;;;;17.80;11.87;;;-0.20;99.90;;;;;;4945188;28;20181;-58
2023/12/17 09:18:34;;;;;;;19.10;11.70;;;-0.10;99.90;;;;;;4947117;28;20323;-58
2023/12/17 09:20:59;;;;;;;19.50;11.73;;;-0.10;99.90;;;;;;4945720;28;20193;-58
2023/12/17 09:23:25;;;;;;;20.93;12.77;;;0.00;99.90;;;;;;4950410;28;20188;-57
2023/12/17 09:25:51;;;;;;;17.97;11.67;;;0.10;99.90;;;;;;4947034;28;20183;-57
2023/12/17 09:28:17;;;;;;;18.47;11.60;;;0.20;99.90;;;;;;4949534;28;20181;-57
2023/12/17 09:30:43;;;;;;;15.83;10.17;;;0.20;99.90;;;;;;4948551;28;20421;-58
2023/12/17 09:33:08;;;;;;;14.87;10.43;;;0.30;99.90;;;;;;4950276;28;20772;-57
2023/12/17 09:35:36;;;;;;;15.40;10.40;;;0.40;99.90;;;;;;4939072;28;20589;-57
2023/12/17 09:38:02;;;;;;;16.67;10.03;;;0.50;99.90;;;;;;4947027;28;20188;-58
2023/12/17 09:40:27;;;;;;;16.60;10.40;;;0.50;99.90;;;;;;4944002;28;20766;-58
2023/12/17 09:42:54;;;;;;;14.97;9.93;;;0.60;99.90;;;;;;4943058;28;20217;-56
2023/12/17 09:45:20;;;;;;;14.17;9.20;;;0.70;99.90;;;;;;4950955;28;20277;-57
2023/12/17 09:47:45;;;;;;;16.73;9.60;;;0.70;99.90;;;;;;4950756;28;20417;-57
2023/12/17 09:50:11;;;;;;;15.30;9.73;;;0.80;99.90;;;;;;4948457;28;20808;-57
2023/12/17 09:52:41;;;;;;;18.03;9.33;;;0.90;99.90;;;;;;4943521;28;20661;-57
2023/12/17 09:55:08;;;;;;;12.90;8.10;;;0.90;99.90;;;;;;4942723;28;20693;-57
2023/12/17 09:57:34;;;;;;;11.70;7.67;;;1.00;99.90;;;;;;4952477;28;20480;-57
2023/12/17 09:59:59;;;;;;;9.77;7.53;;;1.10;99.90;;;;;;4947519;28;20455;-58
2023/12/17 10:02:25;;;;;;;7.17;6.23;;;1.10;99.90;;;;;;4940794;28;20206;-58
2023/12/17 10:04:51;;;;;;;8.53;6.20;;;1.20;99.90;;;;;;4948942;28;20216;-58
2023/12/17 10:07:16;;;;;;;12.60;6.93;;;1.30;99.90;;;;;;4948775;28;20670;-57
2023/12/17 10:09:42;;;;;;;12.93;7.40;;;1.30;99.90;;;;;;4946434;28;20272;-58
2023/12/17 10:12:08;;;;;;;11.40;7.40;;;1.40;99.90;;;;;;4945690;28;20190;-58
2023/12/17 10:14:34;;;;;;;13.70;8.50;;;1.50;99.90;;;;;;4949872;28;20268;-58
2023/12/17 10:17:00;;;;;;;11.80;7.70;;;1.60;99.90;;;;;;4942855;28;20447;-59
2023/12/17 10:19:26;;;;;;;11.20;6.30;;;1.60;99.90;;;;;;4950830;28;20417;-57
2023/12/17 10:21:52;;;;;;;14.50;7.77;;;1.70;99.90;;;;;;4941644;28;20202;-58
2023/12/17 10:24:18;;;;;;;11.60;7.67;;;1.80;99.90;;;;;;4943175;28;20689;-57
2023/12/17 10:26:44;;;;;;;10.33;6.87;;;1.90;99.90;;;;;;4943370;28;20182;-54
2023/12/17 10:29:15;;;;;;;10.83;6.47;;;2.00;99.90;;;;;;4939266;28;20508;-58
2023/12/17 10:31:41;;;;;;;14.40;8.60;;;2.00;99.90;;;;;;4951372;28;20420;-58
2023/12/17 10:34:19;;;;;;;11.63;7.20;;;2.10;99.90;;;;;;4942315;28;20490;-58
2023/12/17 10:36:48;;;;;;;9.93;6.70;;;2.10;99.90;;;;;;4936989;28;20809;-56
2023/12/17 10:39:16;;;;;;;10.57;6.53;;;2.20;99.90;;;;;;4950349;28;21000;-58
2023/12/17 10:41:42;;;;;;;12.60;7.63;;;2.30;99.90;;;;;;4946779;28;20457;-58
2023/12/17 10:44:14;;;;;;;14.63;8.43;;;2.30;99.90;;;;;;4938867;28;20583;-58
2023/12/17 10:46:44;;;;;;;11.70;8.07;;;2.40;99.90;;;;;;4941781;28;20471;-56
2023/12/17 10:49:11;;;;;;;12.97;8.50;;;2.50;99.90;;;;;;4954919;28;20414;-59
2023/12/17 10:51:42;;;;;;;14.60;9.57;;;2.60;99.90;;;;;;4955158;28;20490;-58
2023/12/17 10:54:08;;;;;;;13.73;9.23;;;2.70;99.90;;;;;;4945997;28;20477;-58
2023/12/17 10:56:38;;;;;;;12.43;9.27;;;2.80;99.90;;;;;;4944393;28;20524;-59
2023/12/17 10:59:08;;;;;;;21.40;11.30;;;2.90;99.90;;;;;;4944506;28;20430;-58
2023/12/17 11:01:36;;;;;;;13.60;9.77;;;3.00;99.90;;;;;;4945534;28;20473;-56
2023/12/17 11:04:03;;;;;;;15.23;9.90;;;3.10;99.90;;;;;;4938640;28;20778;-58
2023/12/17 11:06:29;;;;;;;13.60;9.50;;;3.20;99.90;;;;;;4945439;28;20446;-58
2023/12/17 11:08:54;;;;;;;13.33;8.90;;;3.30;99.90;;;;;;4946363;28;20508;-58
2023/12/17 11:11:22;;;;;;;11.47;8.63;;;3.40;99.90;;;;;;4949679;28;20181;-57
2023/12/17 11:13:48;;;;;;;13.67;8.97;;;3.50;99.90;;;;;;4943060;28;20624;-57
2023/12/17 11:16:24;;;;;;;14.30;8.67;;;3.50;99.90;;;;;;4954000;28;20410;-58
2023/12/17 11:18:50;;;;;;;13.77;9.00;;;3.60;99.90;;;;;;4937089;28;20445;-59
2023/12/17 11:21:17;;;;;;;10.13;7.80;;;3.70;99.90;;;;;;4945928;28;20837;-57
2023/12/17 11:23:47;;;;;;;13.27;9.23;;;3.80;99.90;;;;;;4943276;28;21149;-59
2023/12/17 11:26:14;;;;;;;13.10;8.90;;;3.90;99.90;;;;;;4947936;28;20945;-58
2023/12/17 11:28:40;;;;;;;15.03;10.00;;;3.90;99.90;;;;;;4945135;28;20430;-58
2023/12/17 11:31:06;;;;;;;13.03;9.50;;;4.00;99.90;;;;;;4950665;28;20809;-56
2023/12/17 11:33:32;;;;;;;11.73;8.63;;;4.00;99.90;;;;;;4945399;28;20710;-57
2023/12/17 11:35:59;;;;;;;12.97;8.27;;;4.00;99.90;;;;;;4942213;28;20840;-57
2023/12/17 11:38:26;;;;;;;10.77;7.60;;;4.00;99.90;;;;;;4941923;28;20441;-58
2023/12/17 11:40:53;;;;;;;12.17;8.00;;;4.00;99.90;;;;;;4946486;28;20418;-58
2023/12/17 11:43:23;;;;;;;14.13;9.23;;;3.90;99.90;;;;;;4945227;28;20462;-56
2023/12/17 11:45:49;;;;;;;12.77;8.27;;;3.90;99.90;;;;;;4947734;28;20458;-57
2023/12/17 11:48:17;;;;;;;14.43;8.03;;;3.90;99.90;;;;;;4943535;28;20510;-58
2023/12/17 11:50:56;;;;;;;13.60;8.87;;;3.90;99.90;;;;;;4943331;28;20424;-58
2023/12/17 11:53:25;;;;;;;13.77;8.50;;;3.90;99.90;;;;;;4942709;28;20434;-58
2023/12/17 11:55:56;;;;;;;9.63;7.17;;;4.00;99.90;;;;;;4938978;28;20519;-58
2023/12/17 11:58:23;;;;;;;9.23;6.80;;;4.00;99.90;;;;;;4943260;28;20433;-58
2023/12/17 12:01:09;;;;;;;10.07;7.17;;;4.00;99.90;;;;;;4942946;28;20475;-58
2023/12/17 12:03:36;;;;;;;10.77;6.73;;;4.10;99.90;;;;;;4944457;28;20419;-58
2023/12/17 12:06:11;;;;;;;8.67;5.87;;;4.10;99.90;;;;;;4943955;28;20414;-57
2023/12/17 12:08:48;;;;;;;9.50;6.27;;;4.20;99.90;;;;;;4943143;28;20406;-58
2023/12/17 12:11:17;;;;;;;9.50;6.50;;;4.20;99.90;;;;;;4943842;28;20513;-58
2023/12/17 12:13:45;;;;;;;9.37;5.97;;;4.20;99.90;;;;;;4939935;28;20448;-57
2023/12/17 12:16:14;;;;;;;8.60;5.40;;;4.30;99.90;;;;;;4948080;28;20422;-58
2023/12/17 12:18:43;;;;;;;7.20;5.37;;;4.30;99.90;;;;;;4950106;28;20429;-57
2023/12/17 12:21:16;;;;;;;9.23;6.20;;;4.40;99.90;;;;;;4951503;28;21076;-58
2023/12/17 12:23:48;;;;;;;10.07;6.13;;;4.40;99.90;;;;;;4947936;28;20429;-57
2023/12/17 12:26:14;;;;;;;10.60;5.50;;;4.50;99.90;;;;;;4945907;28;20406;-59
2023/12/17 12:28:40;;;;;;;9.07;5.80;;;4.60;99.90;;;;;;4948151;28;20803;-58
2023/12/17 12:31:09;;;;;;;8.20;5.60;;;4.60;99.90;;;;;;4950539;28;20185;-58
2023/12/17 12:33:35;;;;;;;8.50;5.97;;;4.70;99.90;;;;;;4949175;28;20204;-58